sensor_id;sensor_type;location;lat;lon;timestamp;P1;durP1;ratioP1;P2;durP2;ratioP2
72115;SDS011;59991;52.140;5.428;2024-03-02T00:00:13;2.73;;;1.90;;
72115;SDS011;59991;52.140;5.428;2024-03-02T00:00:48;1.90;;;1.25;;
72115;SDS011;59991;52.140;5.428;2024-03-02T00:01:21;2.22;;;1.55;;
72115;SDS011;59991;52.140;5.428;2024-03-02T00:02:11;2.67;;;2.10;;
72115;SDS011;59991;52.140;5.428;2024-03-02T00:02:45;2.55;;;2.35;;
72115;SDS011;59991;52.140;5.428;2024-03-02T00:03:17;5.07;;;1.55;;
72115;SDS011;59991;52.140;5.428;2024-03-02T00:03:49;2.35;;;2.20;;
72115;SDS011;59991;52.140;5.428;2024-03-02T00:04:21;2.30;;;2.03;;
72115;SDS011;59991;52.140;5.428;2024-03-02T00:04:52;2.15;;;1.95;;
72115;SDS011;59991;52.140;5.428;2024-03-02T00:05:24;2.78;;;1.88;;
72115;SDS011;59991;52.140;5.428;2024-03-02T00:05:55;2.30;;;1.20;;
72115;SDS011;59991;52.140;5.428;2024-03-02T00:06:27;2.45;;;1.80;;
72115;SDS011;59991;52.140;5.428;2024-03-02T00:06:58;1.83;;;1.73;;
72115;SDS011;59991;52.140;5.428;2024-03-02T00:07:30;1.95;;;1.80;;
72115;SDS011;59991;52.140;5.428;2024-03-02T00:08:02;3.33;;;1.70;;
72115;SDS011;59991;52.140;5.428;2024-03-02T00:08:37;2.08;;;1.85;;
72115;SDS011;59991;52.140;5.428;2024-03-02T00:09:09;1.60;;;1.50;;
72115;SDS011;59991;52.140;5.428;2024-03-02T00:10:00;2.30;;;1.77;;
72115;SDS011;59991;52.140;5.428;2024-03-02T00:10:37;2.33;;;1.67;;
72115;SDS011;59991;52.140;5.428;2024-03-02T00:11:29;2.05;;;1.30;;
72115;SDS011;59991;52.140;5.428;2024-03-02T00:12:01;3.43;;;1.20;;
72115;SDS011;59991;52.140;5.428;2024-03-02T00:12:33;2.55;;;1.10;;
72115;SDS011;59991;52.140;5.428;2024-03-02T00:13:05;2.55;;;1.42;;
72115;SDS011;59991;52.140;5.428;2024-03-02T00:13:38;4.10;;;1.88;;
72115;SDS011;59991;52.140;5.428;2024-03-02T00:14:10;4.43;;;2.22;;
72115;SDS011;59991;52.140;5.428;2024-03-02T00:14:42;4.95;;;1.73;;
72115;SDS011;59991;52.140;5.428;2024-03-02T00:15:27;3.00;;;1.40;;
72115;SDS011;59991;52.140;5.428;2024-03-02T00:16:10;1.67;;;1.50;;
72115;SDS011;59991;52.140;5.428;2024-03-02T00:16:42;2.45;;;1.48;;
72115;SDS011;59991;52.140;5.428;2024-03-02T00:17:17;1.75;;;1.65;;
72115;SDS011;59991;52.140;5.428;2024-03-02T00:17:55;2.80;;;1.97;;
72115;SDS011;59991;52.140;5.428;2024-03-02T00:18:31;4.18;;;1.95;;
72115;SDS011;59991;52.140;5.428;2024-03-02T00:19:07;3.50;;;1.65;;
72115;SDS011;59991;52.140;5.428;2024-03-02T00:19:40;2.78;;;1.77;;
72115;SDS011;59991;52.140;5.428;2024-03-02T00:20:11;4.65;;;2.35;;
72115;SDS011;59991;52.140;5.428;2024-03-02T00:21:11;1.92;;;1.45;;
72115;SDS011;59991;52.140;5.428;2024-03-02T00:21:44;1.98;;;1.60;;
72115;SDS011;59991;52.140;5.428;2024-03-02T00:22:16;2.85;;;2.35;;
72115;SDS011;59991;52.140;5.428;2024-03-02T00:22:48;1.20;;;1.10;;
72115;SDS011;59991;52.140;5.428;2024-03-02T00:23:21;11.07;;;1.85;;
72115;SDS011;59991;52.140;5.428;2024-03-02T00:23:53;3.43;;;1.60;;
72115;SDS011;59991;52.140;5.428;2024-03-02T00:24:31;5.07;;;1.55;;
72115;SDS011;59991;52.140;5.428;2024-03-02T00:25:05;3.88;;;1.90;;
72115;SDS011;59991;52.140;5.428;2024-03-02T00:25:40;2.85;;;1.95;;
72115;SDS011;59991;52.140;5.428;2024-03-02T00:26:34;4.53;;;1.70;;
72115;SDS011;59991;52.140;5.428;2024-03-02T00:27:05;2.35;;;1.40;;
72115;SDS011;59991;52.140;5.428;2024-03-02T00:27:38;1.90;;;1.48;;
72115;SDS011;59991;52.140;5.428;2024-03-02T00:28:23;1.55;;;1.45;;
72115;SDS011;59991;52.140;5.428;2024-03-02T00:28:56;2.28;;;2.03;;
72115;SDS011;59991;52.140;5.428;2024-03-02T00:29:31;1.65;;;1.52;;
72115;SDS011;59991;52.140;5.428;2024-03-02T00:30:08;2.50;;;1.73;;
72115;SDS011;59991;52.140;5.428;2024-03-02T00:31:13;1.52;;;1.35;;
72115;SDS011;59991;52.140;5.428;2024-03-02T00:31:46;2.03;;;1.13;;
72115;SDS011;59991;52.140;5.428;2024-03-02T00:32:18;4.07;;;2.30;;
72115;SDS011;59991;52.140;5.428;2024-03-02T00:32:49;3.40;;;1.80;;
72115;SDS011;59991;52.140;5.428;2024-03-02T00:33:26;3.83;;;1.70;;
72115;SDS011;59991;52.140;5.428;2024-03-02T00:33:59;2.58;;;1.63;;
72115;SDS011;59991;52.140;5.428;2024-03-02T00:34:35;3.03;;;1.75;;
72115;SDS011;59991;52.140;5.428;2024-03-02T00:35:07;3.25;;;1.40;;
72115;SDS011;59991;52.140;5.428;2024-03-02T00:35:39;3.17;;;1.63;;
72115;SDS011;59991;52.140;5.428;2024-03-02T00:36:11;3.43;;;1.37;;
72115;SDS011;59991;52.140;5.428;2024-03-02T00:36:43;2.63;;;1.55;;
72115;SDS011;59991;52.140;5.428;2024-03-02T00:37:16;4.80;;;1.50;;
72115;SDS011;59991;52.140;5.428;2024-03-02T00:37:47;4.35;;;2.10;;
72115;SDS011;59991;52.140;5.428;2024-03-02T00:38:19;2.35;;;2.15;;
72115;SDS011;59991;52.140;5.428;2024-03-02T00:38:51;3.15;;;1.75;;
72115;SDS011;59991;52.140;5.428;2024-03-02T00:39:25;4.13;;;1.50;;
72115;SDS011;59991;52.140;5.428;2024-03-02T00:39:56;2.13;;;1.92;;
72115;SDS011;59991;52.140;5.428;2024-03-02T00:40:28;2.50;;;1.65;;
72115;SDS011;59991;52.140;5.428;2024-03-02T00:41:04;1.73;;;1.33;;
72115;SDS011;59991;52.140;5.428;2024-03-02T00:41:40;3.17;;;1.00;;
72115;SDS011;59991;52.140;5.428;2024-03-02T00:42:13;2.50;;;1.70;;
72115;SDS011;59991;52.140;5.428;2024-03-02T00:42:45;1.60;;;1.40;;
72115;SDS011;59991;52.140;5.428;2024-03-02T00:43:37;3.97;;;2.33;;
72115;SDS011;59991;52.140;5.428;2024-03-02T00:44:17;2.58;;;2.38;;
72115;SDS011;59991;52.140;5.428;2024-03-02T00:44:52;2.40;;;1.50;;
72115;SDS011;59991;52.140;5.428;2024-03-02T00:45:24;4.20;;;1.50;;
72115;SDS011;59991;52.140;5.428;2024-03-02T00:46:15;2.85;;;1.50;;
72115;SDS011;59991;52.140;5.428;2024-03-02T00:46:49;1.85;;;1.52;;
72115;SDS011;59991;52.140;5.428;2024-03-02T00:47:21;3.95;;;1.48;;
72115;SDS011;59991;52.140;5.428;2024-03-02T00:47:52;1.77;;;1.67;;
72115;SDS011;59991;52.140;5.428;2024-03-02T00:48:24;2.60;;;1.50;;
72115;SDS011;59991;52.140;5.428;2024-03-02T00:48:56;2.13;;;1.63;;
72115;SDS011;59991;52.140;5.428;2024-03-02T00:49:30;3.67;;;1.77;;
72115;SDS011;59991;52.140;5.428;2024-03-02T00:50:01;3.90;;;1.92;;
72115;SDS011;59991;52.140;5.428;2024-03-02T00:50:40;1.88;;;1.40;;
72115;SDS011;59991;52.140;5.428;2024-03-02T00:51:11;5.07;;;1.25;;
72115;SDS011;59991;52.140;5.428;2024-03-02T00:51:44;1.85;;;1.52;;
72115;SDS011;59991;52.140;5.428;2024-03-02T00:52:18;1.42;;;1.20;;
72115;SDS011;59991;52.140;5.428;2024-03-02T00:52:49;1.75;;;1.17;;
72115;SDS011;59991;52.140;5.428;2024-03-02T00:53:22;4.07;;;1.37;;
72115;SDS011;59991;52.140;5.428;2024-03-02T00:53:58;3.40;;;1.45;;
72115;SDS011;59991;52.140;5.428;2024-03-02T00:54:31;1.17;;;1.08;;
72115;SDS011;59991;52.140;5.428;2024-03-02T00:55:02;2.10;;;0.75;;
72115;SDS011;59991;52.140;5.428;2024-03-02T00:55:36;1.52;;;0.80;;
72115;SDS011;59991;52.140;5.428;2024-03-02T00:56:09;1.58;;;1.05;;
72115;SDS011;59991;52.140;5.428;2024-03-02T00:56:43;1.30;;;1.05;;
72115;SDS011;59991;52.140;5.428;2024-03-02T00:57:14;1.90;;;1.05;;
72115;SDS011;59991;52.140;5.428;2024-03-02T00:58:05;1.15;;;0.82;;
72115;SDS011;59991;52.140;5.428;2024-03-02T00:58:37;1.23;;;0.90;;
72115;SDS011;59991;52.140;5.428;2024-03-02T00:59:09;3.33;;;1.10;;
72115;SDS011;59991;52.140;5.428;2024-03-02T00:59:41;2.22;;;0.88;;
72115;SDS011;59991;52.140;5.428;2024-03-02T01:00:13;1.58;;;1.42;;
72115;SDS011;59991;52.140;5.428;2024-03-02T01:00:46;1.33;;;1.23;;
72115;SDS011;59991;52.140;5.428;2024-03-02T01:01:18;1.27;;;0.85;;
72115;SDS011;59991;52.140;5.428;2024-03-02T01:01:51;1.25;;;0.70;;
72115;SDS011;59991;52.140;5.428;2024-03-02T01:02:23;1.92;;;1.50;;
72115;SDS011;59991;52.140;5.428;2024-03-02T01:03:45;1.05;;;1.05;;
72115;SDS011;59991;52.140;5.428;2024-03-02T01:04:17;0.93;;;0.85;;
72115;SDS011;59991;52.140;5.428;2024-03-02T01:04:48;1.13;;;0.70;;
72115;SDS011;59991;52.140;5.428;2024-03-02T01:05:20;0.95;;;0.60;;
72115;SDS011;59991;52.140;5.428;2024-03-02T01:05:51;1.75;;;0.77;;
72115;SDS011;59991;52.140;5.428;2024-03-02T01:06:23;1.42;;;1.33;;
72115;SDS011;59991;52.140;5.428;2024-03-02T01:06:54;1.75;;;0.90;;
72115;SDS011;59991;52.140;5.428;2024-03-02T01:07:26;3.55;;;0.75;;
72115;SDS011;59991;52.140;5.428;2024-03-02T01:07:58;1.30;;;1.08;;
72115;SDS011;59991;52.140;5.428;2024-03-02T01:08:29;1.10;;;1.05;;
72115;SDS011;59991;52.140;5.428;2024-03-02T01:09:03;1.10;;;1.00;;
72115;SDS011;59991;52.140;5.428;2024-03-02T01:09:34;0.80;;;0.75;;
72115;SDS011;59991;52.140;5.428;2024-03-02T01:10:06;0.73;;;0.73;;
72115;SDS011;59991;52.140;5.428;2024-03-02T01:10:37;1.90;;;0.82;;
72115;SDS011;59991;52.140;5.428;2024-03-02T01:11:09;1.10;;;0.82;;
72115;SDS011;59991;52.140;5.428;2024-03-02T01:11:41;1.23;;;1.13;;
72115;SDS011;59991;52.140;5.428;2024-03-02T01:12:12;1.17;;;0.80;;
72115;SDS011;59991;52.140;5.428;2024-03-02T01:12:44;0.85;;;0.82;;
72115;SDS011;59991;52.140;5.428;2024-03-02T01:13:15;0.68;;;0.68;;
72115;SDS011;59991;52.140;5.428;2024-03-02T01:13:47;1.05;;;0.95;;
72115;SDS011;59991;52.140;5.428;2024-03-02T01:14:18;2.17;;;1.08;;
72115;SDS011;59991;52.140;5.428;2024-03-02T01:15:08;0.90;;;0.73;;
72115;SDS011;59991;52.140;5.428;2024-03-02T01:15:40;1.10;;;1.00;;
72115;SDS011;59991;52.140;5.428;2024-03-02T01:16:11;0.88;;;0.88;;
72115;SDS011;59991;52.140;5.428;2024-03-02T01:16:43;1.27;;;1.17;;
72115;SDS011;59991;52.140;5.428;2024-03-02T01:17:35;0.70;;;0.70;;
72115;SDS011;59991;52.140;5.428;2024-03-02T01:18:07;1.05;;;0.50;;
72115;SDS011;59991;52.140;5.428;2024-03-02T01:18:39;0.43;;;0.40;;
72115;SDS011;59991;52.140;5.428;2024-03-02T01:19:10;0.50;;;0.43;;
72115;SDS011;59991;52.140;5.428;2024-03-02T01:19:42;0.77;;;0.77;;
72115;SDS011;59991;52.140;5.428;2024-03-02T01:20:14;0.80;;;0.80;;
72115;SDS011;59991;52.140;5.428;2024-03-02T01:20:46;0.60;;;0.60;;
72115;SDS011;59991;52.140;5.428;2024-03-02T01:21:17;0.70;;;0.70;;
72115;SDS011;59991;52.140;5.428;2024-03-02T01:22:07;0.50;;;0.50;;
72115;SDS011;59991;52.140;5.428;2024-03-02T01:22:39;1.00;;;0.82;;
72115;SDS011;59991;52.140;5.428;2024-03-02T01:23:10;0.73;;;0.70;;
72115;SDS011;59991;52.140;5.428;2024-03-02T01:23:42;0.85;;;0.82;;
72115;SDS011;59991;52.140;5.428;2024-03-02T01:24:14;1.40;;;0.60;;
72115;SDS011;59991;52.140;5.428;2024-03-02T01:24:46;0.90;;;0.55;;
72115;SDS011;59991;52.140;5.428;2024-03-02T01:25:18;0.70;;;0.70;;
72115;SDS011;59991;52.140;5.428;2024-03-02T01:25:49;1.17;;;0.98;;
72115;SDS011;59991;52.140;5.428;2024-03-02T01:26:22;1.00;;;0.70;;
72115;SDS011;59991;52.140;5.428;2024-03-02T01:26:53;0.90;;;0.90;;
72115;SDS011;59991;52.140;5.428;2024-03-02T01:27:24;1.15;;;1.05;;
72115;SDS011;59991;52.140;5.428;2024-03-02T01:27:56;1.38;;;0.70;;
72115;SDS011;59991;52.140;5.428;2024-03-02T01:28:27;1.20;;;1.10;;
72115;SDS011;59991;52.140;5.428;2024-03-02T01:28:59;1.30;;;1.20;;
72115;SDS011;59991;52.140;5.428;2024-03-02T01:29:48;1.27;;;1.00;;
72115;SDS011;59991;52.140;5.428;2024-03-02T01:30:19;1.52;;;0.80;;
72115;SDS011;59991;52.140;5.428;2024-03-02T01:30:51;1.20;;;1.15;;
72115;SDS011;59991;52.140;5.428;2024-03-02T01:31:22;2.05;;;1.08;;
72115;SDS011;59991;52.140;5.428;2024-03-02T01:31:54;0.60;;;0.52;;
72115;SDS011;59991;52.140;5.428;2024-03-02T01:32:26;1.33;;;0.83;;
72115;SDS011;59991;52.140;5.428;2024-03-02T01:32:58;0.73;;;0.60;;
72115;SDS011;59991;52.140;5.428;2024-03-02T01:33:31;0.65;;;0.65;;
72115;SDS011;59991;52.140;5.428;2024-03-02T01:34:03;0.60;;;0.60;;
72115;SDS011;59991;52.140;5.428;2024-03-02T01:34:34;1.00;;;0.90;;
72115;SDS011;59991;52.140;5.428;2024-03-02T01:35:05;0.90;;;0.77;;
72115;SDS011;59991;52.140;5.428;2024-03-02T01:35:38;0.77;;;0.70;;
72115;SDS011;59991;52.140;5.428;2024-03-02T01:36:10;0.60;;;0.55;;
72115;SDS011;59991;52.140;5.428;2024-03-02T01:36:41;1.17;;;1.08;;
72115;SDS011;59991;52.140;5.428;2024-03-02T01:37:13;0.80;;;0.80;;
72115;SDS011;59991;52.140;5.428;2024-03-02T01:37:44;1.23;;;0.90;;
72115;SDS011;59991;52.140;5.428;2024-03-02T01:38:16;1.08;;;1.00;;
72115;SDS011;59991;52.140;5.428;2024-03-02T01:38:47;1.20;;;1.10;;
72115;SDS011;59991;52.140;5.428;2024-03-02T01:39:19;1.05;;;1.02;;
72115;SDS011;59991;52.140;5.428;2024-03-02T01:39:50;1.15;;;0.77;;
72115;SDS011;59991;52.140;5.428;2024-03-02T01:40:22;0.90;;;0.90;;
72115;SDS011;59991;52.140;5.428;2024-03-02T01:40:57;1.23;;;1.10;;
72115;SDS011;59991;52.140;5.428;2024-03-02T01:41:29;0.80;;;0.80;;
72115;SDS011;59991;52.140;5.428;2024-03-02T01:42:01;1.73;;;1.40;;
72115;SDS011;59991;52.140;5.428;2024-03-02T01:42:32;0.77;;;0.77;;
72115;SDS011;59991;52.140;5.428;2024-03-02T01:43:04;0.50;;;0.50;;
72115;SDS011;59991;52.140;5.428;2024-03-02T01:43:37;2.55;;;0.80;;
72115;SDS011;59991;52.140;5.428;2024-03-02T01:44:12;1.10;;;1.00;;
72115;SDS011;59991;52.140;5.428;2024-03-02T01:44:43;1.88;;;1.45;;
72115;SDS011;59991;52.140;5.428;2024-03-02T01:45:15;0.95;;;0.75;;
72115;SDS011;59991;52.140;5.428;2024-03-02T01:45:46;1.27;;;0.73;;
72115;SDS011;59991;52.140;5.428;2024-03-02T01:46:18;0.90;;;0.90;;
72115;SDS011;59991;52.140;5.428;2024-03-02T01:46:50;3.22;;;1.15;;
72115;SDS011;59991;52.140;5.428;2024-03-02T01:47:22;0.90;;;0.80;;
72115;SDS011;59991;52.140;5.428;2024-03-02T01:47:53;1.20;;;1.10;;
72115;SDS011;59991;52.140;5.428;2024-03-02T01:48:25;1.43;;;0.80;;
72115;SDS011;59991;52.140;5.428;2024-03-02T01:48:56;1.20;;;0.90;;
72115;SDS011;59991;52.140;5.428;2024-03-02T01:49:28;1.10;;;1.00;;
72115;SDS011;59991;52.140;5.428;2024-03-02T01:49:59;0.88;;;0.88;;
72115;SDS011;59991;52.140;5.428;2024-03-02T01:50:31;1.40;;;1.27;;
72115;SDS011;59991;52.140;5.428;2024-03-02T01:51:03;0.88;;;0.50;;
72115;SDS011;59991;52.140;5.428;2024-03-02T01:51:37;1.17;;;1.08;;
72115;SDS011;59991;52.140;5.428;2024-03-02T01:52:09;1.33;;;1.20;;
72115;SDS011;59991;52.140;5.428;2024-03-02T01:52:40;0.80;;;0.80;;
72115;SDS011;59991;52.140;5.428;2024-03-02T01:53:12;3.38;;;1.00;;
72115;SDS011;59991;52.140;5.428;2024-03-02T01:53:43;0.70;;;0.70;;
72115;SDS011;59991;52.140;5.428;2024-03-02T01:54:15;1.45;;;0.95;;
72115;SDS011;59991;52.140;5.428;2024-03-02T01:55:04;1.85;;;0.57;;
72115;SDS011;59991;52.140;5.428;2024-03-02T01:55:36;0.93;;;0.80;;
72115;SDS011;59991;52.140;5.428;2024-03-02T01:56:07;1.48;;;1.38;;
72115;SDS011;59991;52.140;5.428;2024-03-02T01:56:39;1.30;;;1.30;;
72115;SDS011;59991;52.140;5.428;2024-03-02T01:57:11;1.50;;;0.95;;
72115;SDS011;59991;52.140;5.428;2024-03-02T01:57:42;1.30;;;1.20;;
72115;SDS011;59991;52.140;5.428;2024-03-02T01:58:16;1.30;;;1.20;;
72115;SDS011;59991;52.140;5.428;2024-03-02T01:58:47;0.88;;;0.88;;
72115;SDS011;59991;52.140;5.428;2024-03-02T01:59:19;0.80;;;0.80;;
72115;SDS011;59991;52.140;5.428;2024-03-02T01:59:50;0.80;;;0.80;;
72115;SDS011;59991;52.140;5.428;2024-03-02T02:00:22;0.90;;;0.60;;
72115;SDS011;59991;52.140;5.428;2024-03-02T02:00:56;1.13;;;1.13;;
72115;SDS011;59991;52.140;5.428;2024-03-02T02:01:27;1.05;;;1.05;;
72115;SDS011;59991;52.140;5.428;2024-03-02T02:01:59;1.35;;;0.70;;
72115;SDS011;59991;52.140;5.428;2024-03-02T02:02:31;1.25;;;0.70;;
72115;SDS011;59991;52.140;5.428;2024-03-02T02:03:02;1.20;;;1.20;;
72115;SDS011;59991;52.140;5.428;2024-03-02T02:03:52;0.80;;;0.80;;
72115;SDS011;59991;52.140;5.428;2024-03-02T02:04:43;1.17;;;1.10;;
72115;SDS011;59991;52.140;5.428;2024-03-02T02:05:15;1.17;;;1.17;;
72115;SDS011;59991;52.140;5.428;2024-03-02T02:05:46;1.88;;;1.02;;
72115;SDS011;59991;52.140;5.428;2024-03-02T02:06:19;1.65;;;0.88;;
72115;SDS011;59991;52.140;5.428;2024-03-02T02:06:51;1.50;;;1.33;;
72115;SDS011;59991;52.140;5.428;2024-03-02T02:07:22;1.25;;;1.20;;
72115;SDS011;59991;52.140;5.428;2024-03-02T02:07:54;1.25;;;1.10;;
72115;SDS011;59991;52.140;5.428;2024-03-02T02:08:25;1.10;;;1.10;;
72115;SDS011;59991;52.140;5.428;2024-03-02T02:08:57;1.10;;;1.10;;
72115;SDS011;59991;52.140;5.428;2024-03-02T02:09:28;1.35;;;1.25;;
72115;SDS011;59991;52.140;5.428;2024-03-02T02:10:00;0.85;;;0.85;;
72115;SDS011;59991;52.140;5.428;2024-03-02T02:10:32;1.27;;;1.17;;
72115;SDS011;59991;52.140;5.428;2024-03-02T02:11:03;1.77;;;1.00;;
72115;SDS011;59991;52.140;5.428;2024-03-02T02:11:35;1.50;;;1.00;;
72115;SDS011;59991;52.140;5.428;2024-03-02T02:12:56;1.27;;;1.02;;
72115;SDS011;59991;52.140;5.428;2024-03-02T02:13:28;1.00;;;1.00;;
72115;SDS011;59991;52.140;5.428;2024-03-02T02:13:59;0.80;;;0.80;;
72115;SDS011;59991;52.140;5.428;2024-03-02T02:14:31;1.52;;;1.00;;
72115;SDS011;59991;52.140;5.428;2024-03-02T02:15:03;0.93;;;0.80;;
72115;SDS011;59991;52.140;5.428;2024-03-02T02:15:36;0.90;;;0.90;;
72115;SDS011;59991;52.140;5.428;2024-03-02T02:16:08;0.87;;;0.87;;
72115;SDS011;59991;52.140;5.428;2024-03-02T02:17:30;0.80;;;0.75;;
72115;SDS011;59991;52.140;5.428;2024-03-02T02:18:02;1.10;;;1.10;;
72115;SDS011;59991;52.140;5.428;2024-03-02T02:18:35;1.05;;;0.85;;
72115;SDS011;59991;52.140;5.428;2024-03-02T02:19:09;1.63;;;1.10;;
72115;SDS011;59991;52.140;5.428;2024-03-02T02:19:41;0.90;;;0.90;;
72115;SDS011;59991;52.140;5.428;2024-03-02T02:20:13;1.05;;;0.90;;
72115;SDS011;59991;52.140;5.428;2024-03-02T02:20:45;1.45;;;1.35;;
72115;SDS011;59991;52.140;5.428;2024-03-02T02:21:16;1.52;;;1.42;;
72115;SDS011;59991;52.140;5.428;2024-03-02T02:21:48;1.10;;;1.00;;
72115;SDS011;59991;52.140;5.428;2024-03-02T02:22:19;1.80;;;1.42;;
72115;SDS011;59991;52.140;5.428;2024-03-02T02:22:57;1.15;;;1.10;;
72115;SDS011;59991;52.140;5.428;2024-03-02T02:23:29;1.40;;;1.00;;
72115;SDS011;59991;52.140;5.428;2024-03-02T02:24:01;1.52;;;1.10;;
72115;SDS011;59991;52.140;5.428;2024-03-02T02:24:35;0.88;;;0.85;;
72115;SDS011;59991;52.140;5.428;2024-03-02T02:25:06;1.20;;;1.20;;
72115;SDS011;59991;52.140;5.428;2024-03-02T02:25:38;1.30;;;1.00;;
72115;SDS011;59991;52.140;5.428;2024-03-02T02:26:09;1.67;;;1.58;;
72115;SDS011;59991;52.140;5.428;2024-03-02T02:26:41;1.10;;;1.00;;
72115;SDS011;59991;52.140;5.428;2024-03-02T02:27:12;1.17;;;1.17;;
72115;SDS011;59991;52.140;5.428;2024-03-02T02:27:46;1.70;;;0.90;;
72115;SDS011;59991;52.140;5.428;2024-03-02T02:28:18;1.55;;;0.93;;
72115;SDS011;59991;52.140;5.428;2024-03-02T02:29:08;1.02;;;1.00;;
72115;SDS011;59991;52.140;5.428;2024-03-02T02:29:39;2.42;;;1.08;;
72115;SDS011;59991;52.140;5.428;2024-03-02T02:30:11;1.23;;;1.13;;
72115;SDS011;59991;52.140;5.428;2024-03-02T02:30:43;1.05;;;0.65;;
72115;SDS011;59991;52.140;5.428;2024-03-02T02:31:15;1.42;;;1.15;;
72115;SDS011;59991;52.140;5.428;2024-03-02T02:31:47;1.35;;;1.25;;
72115;SDS011;59991;52.140;5.428;2024-03-02T02:33:08;1.33;;;1.23;;
72115;SDS011;59991;52.140;5.428;2024-03-02T02:33:40;1.50;;;1.40;;
72115;SDS011;59991;52.140;5.428;2024-03-02T02:34:12;1.05;;;0.93;;
72115;SDS011;59991;52.140;5.428;2024-03-02T02:34:45;1.42;;;1.23;;
72115;SDS011;59991;52.140;5.428;2024-03-02T02:35:17;1.13;;;1.02;;
72115;SDS011;59991;52.140;5.428;2024-03-02T02:35:48;1.10;;;1.00;;
72115;SDS011;59991;52.140;5.428;2024-03-02T02:36:20;1.30;;;1.20;;
72115;SDS011;59991;52.140;5.428;2024-03-02T02:36:51;1.83;;;1.38;;
72115;SDS011;59991;52.140;5.428;2024-03-02T02:37:23;1.38;;;1.27;;
72115;SDS011;59991;52.140;5.428;2024-03-02T02:37:55;2.83;;;1.40;;
72115;SDS011;59991;52.140;5.428;2024-03-02T02:38:28;0.70;;;0.70;;
72115;SDS011;59991;52.140;5.428;2024-03-02T02:39:00;1.23;;;1.05;;
72115;SDS011;59991;52.140;5.428;2024-03-02T02:39:34;1.33;;;0.85;;
72115;SDS011;59991;52.140;5.428;2024-03-02T02:40:06;1.50;;;1.00;;
72115;SDS011;59991;52.140;5.428;2024-03-02T02:40:38;0.90;;;0.77;;
72115;SDS011;59991;52.140;5.428;2024-03-02T02:41:09;0.82;;;0.82;;
72115;SDS011;59991;52.140;5.428;2024-03-02T02:41:41;1.83;;;0.90;;
72115;SDS011;59991;52.140;5.428;2024-03-02T02:42:12;2.08;;;1.42;;
72115;SDS011;59991;52.140;5.428;2024-03-02T02:42:44;1.30;;;1.20;;
72115;SDS011;59991;52.140;5.428;2024-03-02T02:43:15;1.42;;;1.00;;
72115;SDS011;59991;52.140;5.428;2024-03-02T02:43:47;1.43;;;0.87;;
72115;SDS011;59991;52.140;5.428;2024-03-02T02:44:19;2.63;;;0.98;;
72115;SDS011;59991;52.140;5.428;2024-03-02T02:44:50;1.17;;;0.80;;
72115;SDS011;59991;52.140;5.428;2024-03-02T02:45:22;1.90;;;1.05;;
72115;SDS011;59991;52.140;5.428;2024-03-02T02:46:11;1.45;;;1.10;;
72115;SDS011;59991;52.140;5.428;2024-03-02T02:46:43;0.90;;;0.68;;
72115;SDS011;59991;52.140;5.428;2024-03-02T02:47:14;0.95;;;0.88;;
72115;SDS011;59991;52.140;5.428;2024-03-02T02:47:46;0.82;;;0.82;;
72115;SDS011;59991;52.140;5.428;2024-03-02T02:48:17;1.88;;;1.23;;
72115;SDS011;59991;52.140;5.428;2024-03-02T02:48:49;1.67;;;1.00;;
72115;SDS011;59991;52.140;5.428;2024-03-02T02:49:39;0.90;;;0.90;;
72115;SDS011;59991;52.140;5.428;2024-03-02T02:50:28;1.10;;;1.10;;
72115;SDS011;59991;52.140;5.428;2024-03-02T02:51:00;1.05;;;0.88;;
72115;SDS011;59991;52.140;5.428;2024-03-02T02:51:31;1.00;;;1.00;;
72115;SDS011;59991;52.140;5.428;2024-03-02T02:52:20;1.52;;;1.42;;
72115;SDS011;59991;52.140;5.428;2024-03-02T02:52:52;1.25;;;1.17;;
72115;SDS011;59991;52.140;5.428;2024-03-02T02:53:41;2.42;;;1.25;;
72115;SDS011;59991;52.140;5.428;2024-03-02T02:54:31;1.15;;;1.10;;
72115;SDS011;59991;52.140;5.428;2024-03-02T02:55:03;0.82;;;0.82;;
72115;SDS011;59991;52.140;5.428;2024-03-02T02:55:35;0.88;;;0.88;;
72115;SDS011;59991;52.140;5.428;2024-03-02T02:56:11;1.40;;;1.30;;
72115;SDS011;59991;52.140;5.428;2024-03-02T02:56:43;1.35;;;1.25;;
72115;SDS011;59991;52.140;5.428;2024-03-02T02:57:32;0.80;;;0.80;;
72115;SDS011;59991;52.140;5.428;2024-03-02T02:58:07;3.30;;;1.30;;
72115;SDS011;59991;52.140;5.428;2024-03-02T02:58:56;1.63;;;1.52;;
72115;SDS011;59991;52.140;5.428;2024-03-02T03:00:18;1.10;;;1.00;;
72115;SDS011;59991;52.140;5.428;2024-03-02T03:00:51;1.40;;;1.33;;
72115;SDS011;59991;52.140;5.428;2024-03-02T03:01:23;1.55;;;0.70;;
72115;SDS011;59991;52.140;5.428;2024-03-02T03:01:54;0.98;;;0.93;;
72115;SDS011;59991;52.140;5.428;2024-03-02T03:02:27;1.23;;;0.87;;
72115;SDS011;59991;52.140;5.428;2024-03-02T03:02:59;1.55;;;0.90;;
72115;SDS011;59991;52.140;5.428;2024-03-02T03:03:30;1.77;;;1.67;;
72115;SDS011;59991;52.140;5.428;2024-03-02T03:04:02;1.27;;;1.25;;
72115;SDS011;59991;52.140;5.428;2024-03-02T03:04:33;1.33;;;1.15;;
72115;SDS011;59991;52.140;5.428;2024-03-02T03:05:05;1.00;;;1.00;;
72115;SDS011;59991;52.140;5.428;2024-03-02T03:05:37;1.25;;;1.15;;
72115;SDS011;59991;52.140;5.428;2024-03-02T03:06:09;1.67;;;1.15;;
72115;SDS011;59991;52.140;5.428;2024-03-02T03:06:40;1.10;;;1.00;;
72115;SDS011;59991;52.140;5.428;2024-03-02T03:07:12;1.15;;;1.05;;
72115;SDS011;59991;52.140;5.428;2024-03-02T03:07:43;1.43;;;1.33;;
72115;SDS011;59991;52.140;5.428;2024-03-02T03:08:19;1.02;;;0.80;;
72115;SDS011;59991;52.140;5.428;2024-03-02T03:09:09;1.35;;;1.25;;
72115;SDS011;59991;52.140;5.428;2024-03-02T03:09:42;1.60;;;1.50;;
72115;SDS011;59991;52.140;5.428;2024-03-02T03:10:13;1.88;;;0.93;;
72115;SDS011;59991;52.140;5.428;2024-03-02T03:10:46;0.88;;;0.88;;
72115;SDS011;59991;52.140;5.428;2024-03-02T03:11:17;1.05;;;1.02;;
72115;SDS011;59991;52.140;5.428;2024-03-02T03:11:49;1.50;;;1.40;;
72115;SDS011;59991;52.140;5.428;2024-03-02T03:12:20;1.40;;;1.30;;
72115;SDS011;59991;52.140;5.428;2024-03-02T03:13:10;2.53;;;1.30;;
72115;SDS011;59991;52.140;5.428;2024-03-02T03:13:42;3.03;;;1.23;;
72115;SDS011;59991;52.140;5.428;2024-03-02T03:14:13;1.65;;;0.80;;
72115;SDS011;59991;52.140;5.428;2024-03-02T03:14:45;0.77;;;0.75;;
72115;SDS011;59991;52.140;5.428;2024-03-02T03:15:16;2.35;;;1.50;;
72115;SDS011;59991;52.140;5.428;2024-03-02T03:15:48;0.95;;;0.95;;
72115;SDS011;59991;52.140;5.428;2024-03-02T03:16:20;0.80;;;0.80;;
72115;SDS011;59991;52.140;5.428;2024-03-02T03:16:51;1.15;;;1.00;;
72115;SDS011;59991;52.140;5.428;2024-03-02T03:17:23;0.88;;;0.80;;
72115;SDS011;59991;52.140;5.428;2024-03-02T03:17:54;1.45;;;1.35;;
72115;SDS011;59991;52.140;5.428;2024-03-02T03:18:26;2.75;;;1.20;;
72115;SDS011;59991;52.140;5.428;2024-03-02T03:18:58;0.80;;;0.70;;
72115;SDS011;59991;52.140;5.428;2024-03-02T03:19:30;1.55;;;1.40;;
72115;SDS011;59991;52.140;5.428;2024-03-02T03:20:02;2.45;;;1.02;;
72115;SDS011;59991;52.140;5.428;2024-03-02T03:20:52;1.50;;;1.40;;
72115;SDS011;59991;52.140;5.428;2024-03-02T03:21:24;0.95;;;0.93;;
72115;SDS011;59991;52.140;5.428;2024-03-02T03:21:55;2.13;;;1.92;;
72115;SDS011;59991;52.140;5.428;2024-03-02T03:22:27;1.05;;;0.95;;
72115;SDS011;59991;52.140;5.428;2024-03-02T03:22:58;1.75;;;1.30;;
72115;SDS011;59991;52.140;5.428;2024-03-02T03:23:29;1.40;;;1.30;;
72115;SDS011;59991;52.140;5.428;2024-03-02T03:24:01;1.10;;;1.10;;
72115;SDS011;59991;52.140;5.428;2024-03-02T03:24:32;1.07;;;0.90;;
72115;SDS011;59991;52.140;5.428;2024-03-02T03:25:04;1.02;;;1.00;;
72115;SDS011;59991;52.140;5.428;2024-03-02T03:25:38;1.33;;;1.10;;
72115;SDS011;59991;52.140;5.428;2024-03-02T03:26:09;1.20;;;1.20;;
72115;SDS011;59991;52.140;5.428;2024-03-02T03:26:41;1.10;;;1.10;;
72115;SDS011;59991;52.140;5.428;2024-03-02T03:27:12;1.80;;;1.30;;
72115;SDS011;59991;52.140;5.428;2024-03-02T03:27:43;1.20;;;1.10;;